Time,TemperatureF,DewpointF,PressureIn,WindDirection,WindDirectionDegrees,WindSpeedMPH,WindSpeedGustMPH,Humidity,HourlyPrecipIn,Conditions,Clouds,dailyrainin,SoftwareType,DateUTC
2013-11-06 00:03:00,33.3,30.4,30.04,ENE,76,0.0,3.0,89,0.01,,,0.03,meteohub,2013-11-06 06:03:00,
2013-11-06 00:08:00,33.3,30.4,30.04,ENE,76,1.0,3.0,89,0.01,,,0.03,meteohub,2013-11-06 06:08:00,
2013-11-06 00:13:00,33.3,30.6,30.04,ENE,76,1.0,2.0,90,0.01,,,0.03,meteohub,2013-11-06 06:13:00,
2013-11-06 00:18:00,33.3,30.6,30.04,ENE,76,0.0,3.0,90,0.01,,,0.03,meteohub,2013-11-06 06:18:00,
2013-11-06 00:23:00,33.3,30.6,30.04,ENE,76,1.0,3.0,90,0.01,,,0.03,meteohub,2013-11-06 06:23:00,
2013-11-06 00:28:00,33.3,30.6,30.04,ENE,76,0.0,3.0,90,0.01,,,0.03,meteohub,2013-11-06 06:28:00,
2013-11-06 00:33:00,33.4,30.7,30.05,ENE,76,0.0,3.0,90,0.01,,,0.03,meteohub,2013-11-06 06:33:00,
2013-11-06 00:38:00,33.4,30.7,30.04,ENE,75,2.0,3.0,90,0.01,,,0.03,meteohub,2013-11-06 06:38:00,
2013-11-06 00:43:00,33.4,30.7,30.05,ENE,75,1.0,3.0,90,0.01,,,0.03,meteohub,2013-11-06 06:43:00,
2013-11-06 00:49:00,33.4,30.7,30.05,ENE,75,1.0,3.0,90,0.01,,,0.03,meteohub,2013-11-06 06:49:00,
2013-11-06 00:54:00,33.4,30.7,30.05,ENE,75,1.0,3.0,90,0.00,,,0.03,meteohub,2013-11-06 06:54:00,
2013-11-06 00:59:00,33.4,30.7,30.05,ENE,75,0.0,3.0,90,0.00,,,0.03,meteohub,2013-11-06 06:59:00,
2013-11-06 01:04:00,33.4,30.7,30.04,ENE,75,0.0,3.0,90,0.00,,,0.03,meteohub,2013-11-06 07:04:00,
2013-11-06 01:09:00,33.4,30.7,30.04,ENE,74,3.0,3.0,90,0.00,,,0.03,meteohub,2013-11-06 07:09:00,
2013-11-06 01:14:00,33.4,30.7,30.04,ENE,73,2.0,5.0,90,0.00,,,0.03,meteohub,2013-11-06 07:14:00,
2013-11-06 01:19:00,33.4,30.7,30.04,ENE,61,3.0,5.0,90,0.00,,,0.03,meteohub,2013-11-06 07:19:00,
2013-11-06 01:24:00,33.4,30.7,30.04,ENE,62,0.0,5.0,90,0.00,,,0.03,meteohub,2013-11-06 07:24:00,
2013-11-06 01:29:00,33.4,30.7,30.03,ENE,62,0.0,5.0,90,0.00,,,0.03,meteohub,2013-11-06 07:29:00,
2013-11-06 01:34:00,33.4,30.7,30.04,ENE,58,2.0,5.0,90,0.00,,,0.03,meteohub,2013-11-06 07:34:00,
2013-11-06 01:39:00,33.4,30.7,30.04,NE,55,0.0,4.0,90,0.00,,,0.03,meteohub,2013-11-06 07:39:00,
2013-11-06 01:44:00,33.4,30.7,30.04,ENE,68,3.0,4.0,90,0.00,,,0.03,meteohub,2013-11-06 07:44:00,
2013-11-06 01:49:00,33.4,30.7,30.05,ENE,76,0.0,4.0,90,0.00,,,0.03,meteohub,2013-11-06 07:49:00,
2013-11-06 01:55:00,33.4,30.7,30.05,ENE,69,4.0,5.0,90,0.00,,,0.03,meteohub,2013-11-06 07:55:00,
2013-11-06 02:00:00,33.4,31.1,30.05,NE,51,1.0,5.0,91,0.00,,,0.03,meteohub,2013-11-06 08:00:00,
2013-11-06 02:05:00,33.4,31.1,30.05,ENE,58,0.0,7.0,91,0.01,,,0.04,meteohub,2013-11-06 08:05:00,
2013-11-06 02:10:00,33.4,31.1,30.05,East,85,0.0,7.0,91,0.01,,,0.04,meteohub,2013-11-06 08:10:00,
2013-11-06 02:15:00,33.4,31.1,30.05,East,91,1.0,7.0,91,0.01,,,0.04,meteohub,2013-11-06 08:15:00,
2013-11-06 02:20:00,33.4,31.1,30.05,ENE,61,3.0,5.0,91,0.01,,,0.04,meteohub,2013-11-06 08:20:00,
2013-11-06 02:25:00,33.3,30.9,30.04,ENE,61,0.0,4.0,91,0.01,,,0.04,meteohub,2013-11-06 08:25:00,
2013-11-06 02:30:00,33.3,30.9,30.05,ENE,57,0.0,4.0,91,0.01,,,0.04,meteohub,2013-11-06 08:30:00,
2013-11-06 02:35:00,33.3,30.9,30.04,ENE,57,1.0,4.0,91,0.01,,,0.04,meteohub,2013-11-06 08:35:00,
2013-11-06 02:40:00,33.3,30.9,30.04,ENE,57,3.0,4.0,91,0.01,,,0.04,meteohub,2013-11-06 08:40:00,
2013-11-06 02:45:00,33.3,30.9,30.04,NE,55,2.0,4.0,91,0.01,,,0.04,meteohub,2013-11-06 08:45:00,
2013-11-06 02:50:00,33.1,30.7,30.04,NE,40,2.0,4.0,91,0.01,,,0.04,meteohub,2013-11-06 08:50:00,
2013-11-06 02:55:00,33.1,30.7,30.04,NE,43,0.0,5.0,91,0.01,,,0.04,meteohub,2013-11-06 08:55:00,
2013-11-06 03:00:00,33.1,30.7,30.05,ENE,67,0.0,5.0,91,0.01,,,0.04,meteohub,2013-11-06 09:00:00,
2013-11-06 03:06:00,33.1,30.7,30.04,ENE,67,2.0,5.0,91,0.00,,,0.04,meteohub,2013-11-06 09:06:00,
2013-11-06 03:11:00,33.1,30.7,30.05,NE,36,2.0,4.0,91,0.00,,,0.04,meteohub,2013-11-06 09:11:00,
2013-11-06 03:16:00,33.1,30.7,30.04,NE,42,1.0,3.0,91,0.00,,,0.04,meteohub,2013-11-06 09:16:00,
2013-11-06 03:21:00,33.1,30.7,30.05,ENE,71,0.0,4.0,91,0.00,,,0.04,meteohub,2013-11-06 09:21:00,
2013-11-06 03:26:00,33.1,30.7,30.06,ENE,71,1.0,4.0,91,0.00,,,0.04,meteohub,2013-11-06 09:26:00,
2013-11-06 03:31:00,33.1,30.7,30.06,NE,38,0.0,4.0,91,0.00,,,0.04,meteohub,2013-11-06 09:31:00,
2013-11-06 03:36:00,32.9,30.6,30.06,North,11,0.0,4.0,91,0.00,,,0.04,meteohub,2013-11-06 09:36:00,
2013-11-06 03:41:00,32.9,30.6,30.06,ENE,58,0.0,4.0,91,0.00,,,0.04,meteohub,2013-11-06 09:41:00,
2013-11-06 03:46:00,32.9,30.6,30.06,ENE,58,0.0,4.0,91,0.00,,,0.04,meteohub,2013-11-06 09:46:00,
2013-11-06 03:51:00,32.9,30.6,30.06,NNE,32,0.0,3.0,91,0.00,,,0.04,meteohub,2013-11-06 09:51:00,
2013-11-06 03:56:00,32.7,30.4,30.06,NE,44,0.0,5.0,91,0.00,,,0.04,meteohub,2013-11-06 09:56:00,
2013-11-06 04:01:00,32.7,30.4,30.06,NE,44,0.0,5.0,91,0.00,,,0.04,meteohub,2013-11-06 10:01:00,
2013-11-06 04:06:00,32.7,30.4,30.06,NE,44,3.0,5.0,91,0.00,,,0.04,meteohub,2013-11-06 10:06:00,
2013-11-06 04:11:00,32.7,30.4,30.06,NE,44,0.0,3.0,91,0.00,,,0.04,meteohub,2013-11-06 10:11:00,
2013-11-06 04:16:00,32.7,30.4,30.06,NNE,27,0.0,3.0,91,0.00,,,0.04,meteohub,2013-11-06 10:16:00,
2013-11-06 04:21:00,32.7,30.4,30.05,NE,38,0.0,4.0,91,0.00,,,0.04,meteohub,2013-11-06 10:21:00,
2013-11-06 04:26:00,32.5,30.2,30.04,NE,39,0.0,4.0,91,0.00,,,0.04,meteohub,2013-11-06 10:26:00,
2013-11-06 04:32:00,32.5,30.2,30.05,NE,38,0.0,4.0,91,0.00,,,0.04,meteohub,2013-11-06 10:32:00,
2013-11-06 04:37:00,32.5,30.2,30.05,NE,38,0.0,3.0,91,0.00,,,0.04,meteohub,2013-11-06 10:37:00,
2013-11-06 04:42:00,32.5,30.2,30.05,NE,38,0.0,2.0,91,0.00,,,0.04,meteohub,2013-11-06 10:42:00,
2013-11-06 04:47:00,32.5,30.2,30.06,NE,45,0.0,2.0,91,0.00,,,0.04,meteohub,2013-11-06 10:47:00,
2013-11-06 04:52:00,32.5,30.2,30.06,NE,46,0.0,5.0,91,0.00,,,0.04,meteohub,2013-11-06 10:52:00,
2013-11-06 04:57:00,32.5,30.2,30.06,NNE,30,0.0,5.0,91,0.00,,,0.04,meteohub,2013-11-06 10:57:00,
2013-11-06 05:02:00,32.5,30.2,30.06,NNE,29,0.0,6.0,91,0.00,,,0.04,meteohub,2013-11-06 11:02:00,
2013-11-06 05:07:00,32.4,30.0,30.06,NNE,29,0.0,6.0,91,0.00,,,0.04,meteohub,2013-11-06 11:07:00,
2013-11-06 05:12:00,32.4,30.0,30.05,NNE,30,1.0,6.0,91,0.00,,,0.04,meteohub,2013-11-06 11:12:00,
2013-11-06 05:17:00,32.4,30.0,30.06,NNE,30,0.0,3.0,91,0.00,,,0.04,meteohub,2013-11-06 11:17:00,
2013-11-06 05:22:00,32.4,30.0,30.06,NE,36,0.0,3.0,91,0.00,,,0.04,meteohub,2013-11-06 11:22:00,
2013-11-06 05:27:00,32.4,30.0,30.06,NE,36,0.0,3.0,91,0.00,,,0.04,meteohub,2013-11-06 11:27:00,
2013-11-06 05:32:00,32.4,30.0,30.05,NE,36,0.0,3.0,91,0.00,,,0.04,meteohub,2013-11-06 11:32:00,
2013-11-06 05:37:00,32.4,30.0,30.06,NE,36,0.0,3.0,91,0.00,,,0.04,meteohub,2013-11-06 11:37:00,
2013-11-06 05:42:00,32.2,29.8,30.06,NE,36,1.0,3.0,91,0.00,,,0.04,meteohub,2013-11-06 11:42:00,
2013-11-06 05:47:00,32.2,29.8,30.06,NE,35,0.0,3.0,91,0.00,,,0.04,meteohub,2013-11-06 11:47:00,
2013-11-06 05:52:00,32.2,29.8,30.06,NE,42,2.0,3.0,91,0.00,,,0.04,meteohub,2013-11-06 11:52:00,
2013-11-06 05:57:00,32.0,29.7,30.06,NE,40,0.0,4.0,91,0.00,,,0.04,meteohub,2013-11-06 11:57:00,
2013-11-06 06:02:00,32.0,29.7,30.06,NE,40,0.0,4.0,91,0.00,,,0.04,meteohub,2013-11-06 12:02:00,
2013-11-06 06:07:00,32.0,29.7,30.06,NE,37,0.0,3.0,91,0.00,,,0.04,meteohub,2013-11-06 12:07:00,
2013-11-06 06:12:00,31.8,29.5,30.06,NE,37,0.0,3.0,91,0.00,,,0.04,meteohub,2013-11-06 12:12:00,
2013-11-06 06:17:00,31.8,29.5,30.06,NNE,30,2.0,3.0,91,0.00,,,0.04,meteohub,2013-11-06 12:17:00,
2013-11-06 06:22:00,31.8,29.5,30.06,NNE,30,0.0,5.0,91,0.00,,,0.04,meteohub,2013-11-06 12:22:00,
2013-11-06 06:27:00,31.8,29.5,30.06,NNE,30,1.0,5.0,91,0.00,,,0.04,meteohub,2013-11-06 12:27:00,
2013-11-06 06:32:00,31.8,29.5,30.06,NNE,30,1.0,5.0,91,0.00,,,0.04,meteohub,2013-11-06 12:32:00,
2013-11-06 06:37:00,31.8,29.5,30.05,North,-999,-999.0,2.0,91,0.00,,,0.04,meteohub,2013-11-06 12:37:00,
2013-11-06 07:59:00,31.1,28.8,30.09,North,-999,-999.0,-999.0,91,-99.99,,,0.04,meteohub,2013-11-06 13:59:00,
2013-11-06 08:04:00,30.9,28.6,30.09,North,11,1.0,-999.0,91,0.00,,,0.04,meteohub,2013-11-06 14:04:00,
2013-11-06 08:09:00,30.9,28.6,30.09,NNE,33,3.0,3.0,91,0.00,,,0.04,meteohub,2013-11-06 14:09:00,
2013-11-06 08:14:00,30.9,28.6,30.09,NE,34,0.0,4.0,91,0.00,,,0.04,meteohub,2013-11-06 14:14:00,
2013-11-06 08:19:00,31.1,28.8,30.09,NE,34,0.0,4.0,91,0.00,,,0.04,meteohub,2013-11-06 14:19:00,
2013-11-06 08:24:00,31.3,28.9,30.09,NNE,17,1.0,4.0,91,0.00,,,0.04,meteohub,2013-11-06 14:24:00,
2013-11-06 08:29:00,31.3,28.9,30.10,NNE,26,0.0,3.0,91,0.00,,,0.04,meteohub,2013-11-06 14:29:00,
2013-11-06 08:34:00,31.3,28.9,30.10,NNE,26,0.0,6.0,91,0.00,,,0.04,meteohub,2013-11-06 14:34:00,
2013-11-06 08:39:00,31.5,29.1,30.10,NNE,29,0.0,6.0,91,0.00,,,0.04,meteohub,2013-11-06 14:39:00,
2013-11-06 08:44:00,31.5,29.1,30.10,NNE,26,0.0,4.0,91,0.00,,,0.04,meteohub,2013-11-06 14:44:00,
2013-11-06 08:50:00,31.6,29.3,30.10,NNE,24,0.0,4.0,91,0.00,,,0.04,meteohub,2013-11-06 14:50:00,
2013-11-06 08:55:00,31.6,29.3,30.10,NNE,19,0.0,3.0,91,0.00,,,0.04,meteohub,2013-11-06 14:55:00,
2013-11-06 09:00:00,31.8,29.5,30.11,NE,36,3.0,4.0,91,0.00,,,0.04,meteohub,2013-11-06 15:00:00,
2013-11-06 09:05:00,31.8,29.5,30.10,ENE,72,0.0,5.0,91,0.00,,,0.04,meteohub,2013-11-06 15:05:00,
2013-11-06 09:10:00,32.0,29.5,30.10,NNE,15,0.0,5.0,90,0.00,,,0.04,meteohub,2013-11-06 15:10:00,
2013-11-06 09:15:00,32.2,29.7,30.10,NE,34,1.0,5.0,90,0.00,,,0.04,meteohub,2013-11-06 15:15:00,
2013-11-06 09:20:00,32.2,29.7,30.11,ENE,75,0.0,6.0,90,0.00,,,0.04,meteohub,2013-11-06 15:20:00,
2013-11-06 09:25:00,32.4,29.8,30.11,ENE,71,2.0,6.0,90,0.00,,,0.04,meteohub,2013-11-06 15:25:00,
2013-11-06 09:30:00,32.5,30.0,30.11,NE,53,3.0,6.0,90,0.00,,,0.04,meteohub,2013-11-06 15:30:00,
2013-11-06 09:35:00,32.5,30.0,30.11,NE,40,1.0,4.0,90,0.00,,,0.04,meteohub,2013-11-06 15:35:00,
2013-11-06 09:40:00,32.7,29.8,30.11,NE,39,0.0,7.0,89,0.00,,,0.04,meteohub,2013-11-06 15:40:00,
2013-11-06 09:45:00,32.9,30.0,30.11,NNE,27,0.0,9.0,89,0.00,,,0.04,meteohub,2013-11-06 15:45:00,
2013-11-06 09:50:00,32.9,29.7,30.11,NE,38,0.0,9.0,88,0.00,,,0.04,meteohub,2013-11-06 15:50:00,
2013-11-06 09:55:00,33.1,29.8,30.11,NE,49,0.0,9.0,88,0.00,,,0.04,meteohub,2013-11-06 15:55:00,
2013-11-06 10:00:00,33.3,30.0,30.11,NE,40,0.0,6.0,88,0.00,,,0.04,meteohub,2013-11-06 16:00:00,
2013-11-06 10:05:00,33.6,30.2,30.11,ENE,69,1.0,5.0,87,0.01,,,0.05,meteohub,2013-11-06 16:05:00,
2013-11-06 10:11:00,33.8,30.0,30.11,ENE,63,0.0,5.0,86,0.01,,,0.05,meteohub,2013-11-06 16:11:00,
2013-11-06 10:16:00,33.8,30.0,30.11,NNE,28,1.0,5.0,86,0.01,,,0.05,meteohub,2013-11-06 16:16:00,
2013-11-06 10:21:00,34.0,30.0,30.11,NE,46,0.0,7.0,85,0.01,,,0.05,meteohub,2013-11-06 16:21:00,
2013-11-06 10:26:00,34.2,29.8,30.11,NNE,17,0.0,7.0,84,0.01,,,0.05,meteohub,2013-11-06 16:26:00,
2013-11-06 10:31:00,34.3,30.0,30.11,ENE,72,1.0,7.0,84,0.01,,,0.05,meteohub,2013-11-06 16:31:00,
2013-11-06 10:36:00,34.3,29.7,30.11,ENE,64,0.0,5.0,83,0.01,,,0.05,meteohub,2013-11-06 16:36:00,
2013-11-06 10:41:00,34.3,29.5,30.12,NE,40,1.0,5.0,82,0.01,,,0.05,meteohub,2013-11-06 16:41:00,
2013-11-06 10:46:00,34.3,29.1,30.11,NNE,32,0.0,5.0,81,0.01,,,0.05,meteohub,2013-11-06 16:46:00,
2013-11-06 10:51:00,34.5,28.9,30.11,NNE,28,0.0,3.0,80,0.01,,,0.05,meteohub,2013-11-06 16:51:00,
2013-11-06 10:56:00,34.7,28.9,30.11,NNE,13,0.0,3.0,79,0.02,,,0.06,meteohub,2013-11-06 16:56:00,
2013-11-06 11:01:00,34.9,28.8,30.11,NE,38,4.0,5.0,78,0.01,,,0.06,meteohub,2013-11-06 17:01:00,
2013-11-06 11:06:00,35.1,28.6,30.12,NE,37,0.0,7.0,77,0.01,,,0.06,meteohub,2013-11-06 17:06:00,
2013-11-06 11:11:00,35.2,28.4,30.12,NE,49,1.0,7.0,76,0.01,,,0.06,meteohub,2013-11-06 17:11:00,
2013-11-06 11:16:00,35.6,28.2,30.12,NE,53,4.0,7.0,74,0.01,,,0.06,meteohub,2013-11-06 17:16:00,
2013-11-06 11:21:00,35.8,27.7,30.12,NE,41,3.0,7.0,72,0.01,,,0.06,meteohub,2013-11-06 17:21:00,
2013-11-06 11:26:00,36.0,27.5,30.12,NE,53,3.0,8.0,71,0.01,,,0.06,meteohub,2013-11-06 17:26:00,
2013-11-06 11:32:00,36.3,27.1,30.12,NE,44,1.0,8.0,69,0.02,,,0.07,meteohub,2013-11-06 17:32:00,
2013-11-06 11:37:00,36.7,26.8,30.12,NE,44,0.0,8.0,67,0.02,,,0.07,meteohub,2013-11-06 17:37:00,
2013-11-06 11:42:00,37.0,26.8,30.12,NE,49,2.0,7.0,66,0.02,,,0.07,meteohub,2013-11-06 17:42:00,
2013-11-06 11:47:00,37.6,27.3,30.12,NE,41,1.0,6.0,66,0.02,,,0.07,meteohub,2013-11-06 17:47:00,
2013-11-06 11:52:00,37.9,26.8,30.12,NNE,24,2.0,6.0,64,0.01,,,0.07,meteohub,2013-11-06 17:52:00,
2013-11-06 11:57:00,38.1,26.6,30.12,NE,51,1.0,10.0,63,0.01,,,0.07,meteohub,2013-11-06 17:57:00,
2013-11-06 12:02:00,38.5,26.6,30.12,NE,49,5.0,10.0,62,0.02,,,0.08,meteohub,2013-11-06 18:02:00,
2013-11-06 12:07:00,38.7,26.8,30.12,NE,56,2.0,7.0,62,0.02,,,0.08,meteohub,2013-11-06 18:07:00,
2013-11-06 12:12:00,38.8,27.3,30.12,NE,45,0.0,7.0,63,0.02,,,0.08,meteohub,2013-11-06 18:12:00,
2013-11-06 12:17:00,39.0,26.2,30.12,NE,45,3.0,8.0,60,0.02,,,0.08,meteohub,2013-11-06 18:17:00,
2013-11-06 12:22:00,39.0,25.9,30.12,NE,42,1.0,8.0,59,0.02,,,0.08,meteohub,2013-11-06 18:22:00,
2013-11-06 12:27:00,39.2,26.4,30.12,NE,41,0.0,8.0,60,0.02,,,0.08,meteohub,2013-11-06 18:27:00,
2013-11-06 12:32:00,39.0,25.9,30.12,NE,52,1.0,8.0,59,0.01,,,0.08,meteohub,2013-11-06 18:32:00,
2013-11-06 12:37:00,39.0,25.9,30.12,NE,34,0.0,10.0,59,0.01,,,0.08,meteohub,2013-11-06 18:37:00,
2013-11-06 12:42:00,38.8,26.1,30.12,NE,41,3.0,10.0,60,0.01,,,0.08,meteohub,2013-11-06 18:42:00,
2013-11-06 12:47:00,39.0,26.8,30.12,ENE,57,0.0,10.0,61,0.01,,,0.08,meteohub,2013-11-06 18:47:00,
2013-11-06 12:52:00,39.2,27.0,30.12,ENE,69,0.0,8.0,61,0.01,,,0.08,meteohub,2013-11-06 18:52:00,
2013-11-06 12:57:00,39.4,27.5,30.12,NE,36,2.0,8.0,62,0.01,,,0.08,meteohub,2013-11-06 18:57:00,
2013-11-06 13:02:00,39.4,27.1,30.12,NE,44,4.0,7.0,61,0.00,,,0.08,meteohub,2013-11-06 19:02:00,
2013-11-06 13:07:00,39.6,27.7,30.12,NE,40,0.0,11.0,62,0.00,,,0.08,meteohub,2013-11-06 19:07:00,
2013-11-06 13:12:00,39.9,28.4,30.12,NE,46,2.0,11.0,63,0.00,,,0.08,meteohub,2013-11-06 19:12:00,
2013-11-06 13:17:00,40.1,28.6,30.12,NE,43,0.0,5.0,63,0.00,,,0.08,meteohub,2013-11-06 19:17:00,
2013-11-06 13:22:00,40.3,28.2,30.12,NE,36,3.0,5.0,62,0.00,,,0.08,meteohub,2013-11-06 19:22:00,
2013-11-06 13:27:00,40.3,28.8,30.12,North,11,0.0,6.0,63,0.00,,,0.08,meteohub,2013-11-06 19:27:00,
2013-11-06 13:32:00,40.3,28.2,30.12,NE,43,1.0,6.0,62,0.00,,,0.08,meteohub,2013-11-06 19:32:00,
2013-11-06 13:37:00,40.5,28.0,30.13,NE,49,5.0,6.0,61,0.00,,,0.08,meteohub,2013-11-06 19:37:00,
2013-11-06 13:42:00,40.5,28.0,30.12,NE,50,1.0,6.0,61,0.00,,,0.08,meteohub,2013-11-06 19:42:00,
2013-11-06 13:47:00,40.3,27.9,30.12,NE,49,0.0,6.0,61,0.00,,,0.08,meteohub,2013-11-06 19:47:00,
2013-11-06 13:52:00,40.1,27.7,30.12,SW,235,0.0,6.0,61,0.00,,,0.08,meteohub,2013-11-06 19:52:00,
2013-11-06 13:57:00,40.1,27.7,30.13,NE,46,1.0,5.0,61,0.00,,,0.08,meteohub,2013-11-06 19:57:00,
2013-11-06 14:02:00,40.1,27.7,30.13,NNE,25,1.0,6.0,61,0.00,,,0.08,meteohub,2013-11-06 20:02:00,
2013-11-06 14:07:00,40.1,27.3,30.13,NE,38,0.0,7.0,60,0.00,,,0.08,meteohub,2013-11-06 20:07:00,
2013-11-06 14:12:00,40.1,27.7,30.13,North,11,1.0,7.0,61,0.00,,,0.08,meteohub,2013-11-06 20:12:00,
2013-11-06 14:17:00,40.3,27.5,30.13,NNE,18,0.0,7.0,60,0.00,,,0.08,meteohub,2013-11-06 20:17:00,
2013-11-06 14:22:00,40.1,27.3,30.13,NNE,31,0.0,5.0,60,0.00,,,0.08,meteohub,2013-11-06 20:22:00,
2013-11-06 14:27:00,40.1,27.3,30.13,NNE,32,0.0,9.0,60,0.00,,,0.08,meteohub,2013-11-06 20:27:00,
2013-11-06 14:32:00,39.9,26.8,30.14,NNE,19,2.0,9.0,59,0.00,,,0.08,meteohub,2013-11-06 20:32:00,
2013-11-06 14:37:00,39.7,26.6,30.13,NNW,340,1.0,7.0,59,0.00,,,0.08,meteohub,2013-11-06 20:37:00,
2013-11-06 14:42:00,39.7,27.0,30.14,NE,52,5.0,7.0,60,0.00,,,0.08,meteohub,2013-11-06 20:42:00,
2013-11-06 14:47:00,39.6,26.8,30.13,NE,34,1.0,7.0,60,0.00,,,0.08,meteohub,2013-11-06 20:47:00,
2013-11-06 14:52:00,39.4,27.1,30.14,NNW,340,0.0,7.0,61,0.00,,,0.08,meteohub,2013-11-06 20:52:00,
2013-11-06 14:57:00,39.4,27.1,30.14,NE,40,2.0,7.0,61,0.00,,,0.08,meteohub,2013-11-06 20:57:00,
2013-11-06 15:02:00,39.2,27.3,30.14,NE,51,1.0,6.0,62,0.00,,,0.08,meteohub,2013-11-06 21:02:00,
2013-11-06 15:07:00,39.0,27.1,30.14,NE,50,1.0,5.0,62,0.00,,,0.08,meteohub,2013-11-06 21:07:00,
2013-11-06 15:12:00,38.8,27.0,30.14,ENE,61,0.0,6.0,62,0.00,,,0.08,meteohub,2013-11-06 21:12:00,
2013-11-06 15:17:00,38.8,27.0,30.14,NNW,330,2.0,6.0,62,0.00,,,0.08,meteohub,2013-11-06 21:17:00,
2013-11-06 15:22:00,38.7,27.1,30.14,ENE,59,4.0,6.0,63,0.00,,,0.08,meteohub,2013-11-06 21:22:00,
2013-11-06 15:27:00,38.7,27.1,30.15,NE,51,3.0,9.0,63,0.00,,,0.08,meteohub,2013-11-06 21:27:00,
2013-11-06 15:32:00,38.5,27.0,30.15,NNE,29,0.0,9.0,63,0.00,,,0.08,meteohub,2013-11-06 21:32:00,
2013-11-06 15:37:00,38.5,27.3,30.15,NNE,25,3.0,9.0,64,0.00,,,0.08,meteohub,2013-11-06 21:37:00,
2013-11-06 15:42:00,38.5,27.7,30.15,NW,317,2.0,6.0,65,0.00,,,0.08,meteohub,2013-11-06 21:42:00,
2013-11-06 15:47:00,38.5,27.7,30.15,NE,42,0.0,4.0,65,0.00,,,0.08,meteohub,2013-11-06 21:47:00,
2013-11-06 15:52:00,38.5,27.7,30.15,NE,51,2.0,5.0,65,0.00,,,0.08,meteohub,2013-11-06 21:52:00,
2013-11-06 15:57:00,38.3,27.9,30.15,NE,50,0.0,9.0,66,0.00,,,0.08,meteohub,2013-11-06 21:57:00,
2013-11-06 16:02:00,38.1,27.9,30.15,NNW,327,3.0,9.0,66,0.00,,,0.08,meteohub,2013-11-06 22:02:00,
2013-11-06 16:07:00,38.1,27.9,30.16,NNE,15,0.0,6.0,66,0.00,,,0.08,meteohub,2013-11-06 22:07:00,
2013-11-06 16:12:00,37.9,28.0,30.15,NNE,13,0.0,5.0,67,0.00,,,0.08,meteohub,2013-11-06 22:12:00,
2013-11-06 16:17:00,37.9,28.0,30.16,NE,35,0.0,5.0,67,0.00,,,0.08,meteohub,2013-11-06 22:17:00,
2013-11-06 16:22:00,37.8,27.9,30.16,NE,44,0.0,5.0,67,0.00,,,0.08,meteohub,2013-11-06 22:22:00,
2013-11-06 16:27:00,37.8,27.9,30.15,NW,319,0.0,5.0,67,0.00,,,0.08,meteohub,2013-11-06 22:27:00,
2013-11-06 16:32:00,37.6,27.7,30.15,WNW,303,0.0,4.0,67,0.00,,,0.08,meteohub,2013-11-06 22:32:00,
2013-11-06 16:37:00,37.6,27.7,30.15,WNW,303,0.0,3.0,67,0.00,,,0.08,meteohub,2013-11-06 22:37:00,
2013-11-06 16:42:00,37.4,27.9,30.15,WNW,290,0.0,3.0,68,0.00,,,0.08,meteohub,2013-11-06 22:42:00,
2013-11-06 16:47:00,37.2,27.7,30.15,WNW,290,0.0,2.0,68,0.00,,,0.08,meteohub,2013-11-06 22:47:00,
2013-11-06 16:52:00,37.2,27.7,30.15,WNW,290,0.0,2.0,68,0.00,,,0.08,meteohub,2013-11-06 22:52:00,
2013-11-06 16:57:00,37.0,27.5,30.15,WNW,298,0.0,2.0,68,0.00,,,0.08,meteohub,2013-11-06 22:57:00,
2013-11-06 17:02:00,36.9,27.3,30.15,North,0,2.0,3.0,68,0.00,,,0.08,meteohub,2013-11-06 23:02:00,
2013-11-06 17:07:00,36.9,27.3,30.16,North,0,0.0,3.0,68,0.00,,,0.08,meteohub,2013-11-06 23:07:00,
2013-11-06 17:12:00,36.7,27.1,30.16,North,0,0.0,2.0,68,0.00,,,0.08,meteohub,2013-11-06 23:12:00,
2013-11-06 17:17:00,36.3,27.1,30.16,North,0,0.0,2.0,69,0.00,,,0.08,meteohub,2013-11-06 23:17:00,
2013-11-06 17:22:00,36.1,27.0,30.16,North,355,0.0,2.0,69,0.00,,,0.08,meteohub,2013-11-06 23:22:00,
2013-11-06 17:27:00,36.1,27.0,30.16,North,355,0.0,2.0,69,0.00,,,0.08,meteohub,2013-11-06 23:27:00,
2013-11-06 17:32:00,36.0,26.8,30.16,North,355,0.0,2.0,69,0.00,,,0.08,meteohub,2013-11-06 23:32:00,
2013-11-06 17:37:00,35.8,26.6,30.16,North,355,0.0,1.0,69,0.00,,,0.08,meteohub,2013-11-06 23:37:00,
2013-11-06 17:42:00,35.6,26.4,30.17,North,355,0.0,2.0,69,0.00,,,0.08,meteohub,2013-11-06 23:42:00,
2013-11-06 17:47:00,35.2,26.1,30.17,North,355,0.0,2.0,69,0.00,,,0.08,meteohub,2013-11-06 23:47:00,
2013-11-06 17:52:00,35.2,26.4,30.17,NNW,344,2.0,3.0,70,0.00,,,0.08,meteohub,2013-11-06 23:52:00,
2013-11-06 17:57:00,34.9,26.1,30.17,NNW,329,0.0,3.0,70,0.00,,,0.08,meteohub,2013-11-06 23:57:00,
2013-11-06 18:02:00,34.5,25.7,30.17,NNW,329,0.0,3.0,70,0.00,,,0.08,meteohub,2013-11-07 00:02:00,
2013-11-06 18:07:00,34.3,25.5,30.17,NE,52,0.0,5.0,70,0.00,,,0.00,meteohub,2013-11-07 00:07:00,
2013-11-06 18:12:00,34.3,25.5,30.17,NE,52,0.0,5.0,70,0.00,,,0.00,meteohub,2013-11-07 00:12:00,
2013-11-06 18:17:00,34.3,25.5,30.17,NE,52,0.0,5.0,70,0.00,,,0.00,meteohub,2013-11-07 00:17:00,
2013-11-06 18:22:00,34.2,25.3,30.18,NE,52,0.0,1.0,70,0.00,,,0.00,meteohub,2013-11-07 00:22:00,
2013-11-06 18:27:00,34.0,25.2,30.18,NE,53,0.0,1.0,70,0.00,,,0.00,meteohub,2013-11-07 00:27:00,
2013-11-06 18:32:00,33.8,25.0,30.18,NE,52,0.0,1.0,70,0.00,,,0.00,meteohub,2013-11-07 00:32:00,
2013-11-06 18:37:00,33.6,24.8,30.18,NE,52,0.0,0.0,70,0.00,,,0.00,meteohub,2013-11-07 00:37:00,
2013-11-06 18:42:00,33.3,24.8,30.18,NW,315,2.0,2.0,71,0.00,,,0.00,meteohub,2013-11-07 00:42:00,
2013-11-06 18:47:00,33.1,24.6,30.18,NW,313,0.0,3.0,71,0.00,,,0.00,meteohub,2013-11-07 00:47:00,
2013-11-06 18:52:00,32.9,24.8,30.18,NW,313,2.0,3.0,72,0.00,,,0.00,meteohub,2013-11-07 00:52:00,
2013-11-06 18:57:00,32.7,24.6,30.18,NW,313,0.0,3.0,72,0.00,,,0.00,meteohub,2013-11-07 00:57:00,
2013-11-06 19:02:00,32.7,25.0,30.18,NW,311,0.0,2.0,73,0.00,,,0.00,meteohub,2013-11-07 01:02:00,
2013-11-06 19:07:00,32.5,24.8,30.18,NW,311,0.0,4.0,73,0.00,,,0.00,meteohub,2013-11-07 01:07:00,
2013-11-06 19:12:00,32.5,24.8,30.18,NW,312,0.0,4.0,73,0.00,,,0.00,meteohub,2013-11-07 01:12:00,
2013-11-06 19:17:00,32.5,24.8,30.18,NW,311,0.0,4.0,73,0.00,,,0.00,meteohub,2013-11-07 01:17:00,
2013-11-06 19:22:00,32.4,24.6,30.19,NW,325,0.0,3.0,73,0.00,,,0.00,meteohub,2013-11-07 01:22:00,
2013-11-06 19:27:00,32.4,24.6,30.18,NW,325,0.0,3.0,73,0.00,,,0.00,meteohub,2013-11-07 01:27:00,
2013-11-06 19:32:00,32.4,25.0,30.19,NW,325,0.0,3.0,74,0.00,,,0.00,meteohub,2013-11-07 01:32:00,
2013-11-06 19:37:00,32.4,25.0,30.19,NW,325,0.0,3.0,74,0.00,,,0.00,meteohub,2013-11-07 01:37:00,
2013-11-06 19:42:00,32.4,25.0,30.19,NW,325,0.0,3.0,74,0.00,,,0.00,meteohub,2013-11-07 01:42:00,
2013-11-06 19:47:00,32.4,25.0,30.18,NW,325,0.0,2.0,74,0.00,,,0.00,meteohub,2013-11-07 01:47:00,
2013-11-06 19:52:00,32.4,25.0,30.18,NW,325,0.0,1.0,74,0.00,,,0.00,meteohub,2013-11-07 01:52:00,
2013-11-06 19:57:00,32.4,25.3,30.18,NW,325,0.0,3.0,75,0.00,,,0.00,meteohub,2013-11-07 01:57:00,
2013-11-06 20:02:00,32.5,25.5,30.18,NW,322,0.0,3.0,75,0.00,,,0.00,meteohub,2013-11-07 02:02:00,
2013-11-06 20:07:00,32.5,25.5,30.18,NW,323,0.0,3.0,75,0.00,,,0.00,meteohub,2013-11-07 02:07:00,
2013-11-06 20:12:00,32.5,25.5,30.18,NW,318,0.0,3.0,75,0.00,,,0.00,meteohub,2013-11-07 02:12:00,
2013-11-06 20:17:00,32.5,25.5,30.18,NW,315,0.0,3.0,75,0.00,,,0.00,meteohub,2013-11-07 02:17:00,
2013-11-06 20:22:00,32.7,25.7,30.18,NW,314,0.0,3.0,75,0.00,,,0.00,meteohub,2013-11-07 02:22:00,
2013-11-06 20:27:00,32.7,25.7,30.18,NW,311,0.0,3.0,75,0.00,,,0.00,meteohub,2013-11-07 02:27:00,
2013-11-06 20:32:00,32.7,25.7,30.18,WNW,296,0.0,3.0,75,0.00,,,0.00,meteohub,2013-11-07 02:32:00,
2013-11-06 20:37:00,32.9,25.9,30.18,WNW,302,0.0,4.0,75,0.00,,,0.00,meteohub,2013-11-07 02:37:00,
2013-11-06 20:42:00,32.9,26.2,30.18,WNW,298,0.0,4.0,76,0.00,,,0.00,meteohub,2013-11-07 02:42:00,
2013-11-06 20:47:00,33.1,26.4,30.18,WNW,295,0.0,3.0,76,0.00,,,0.00,meteohub,2013-11-07 02:47:00,
2013-11-06 20:52:00,33.1,26.4,30.18,WNW,292,0.0,3.0,76,0.00,,,0.00,meteohub,2013-11-07 02:52:00,
2013-11-06 20:57:00,33.1,26.4,30.18,West,275,3.0,3.0,76,0.00,,,0.00,meteohub,2013-11-07 02:57:00,
2013-11-06 21:02:00,33.1,26.4,30.18,WNW,291,0.0,4.0,76,0.00,,,0.00,meteohub,2013-11-07 03:02:00,
2013-11-06 21:07:00,33.3,26.6,30.18,WNW,291,0.0,4.0,76,0.00,,,0.00,meteohub,2013-11-07 03:07:00,
2013-11-06 21:12:00,33.3,26.6,30.18,WNW,299,0.0,4.0,76,0.00,,,0.00,meteohub,2013-11-07 03:12:00,
2013-11-06 21:17:00,33.3,26.6,30.18,WNW,299,0.0,3.0,76,0.00,,,0.00,meteohub,2013-11-07 03:17:00,
2013-11-06 21:22:00,33.3,26.6,30.19,WNW,299,0.0,3.0,76,0.00,,,0.00,meteohub,2013-11-07 03:22:00,
2013-11-06 21:27:00,33.3,26.6,30.18,WNW,299,0.0,3.0,76,0.00,,,0.00,meteohub,2013-11-07 03:27:00,
2013-11-06 21:32:00,33.3,26.6,30.19,WNW,299,0.0,2.0,76,0.00,,,0.00,meteohub,2013-11-07 03:32:00,
2013-11-06 21:37:00,33.3,26.6,30.19,NNW,345,0.0,2.0,76,0.00,,,0.00,meteohub,2013-11-07 03:37:00,
2013-11-06 21:42:00,33.3,26.6,30.19,NNW,345,0.0,2.0,76,0.00,,,0.00,meteohub,2013-11-07 03:42:00,
2013-11-06 21:47:00,33.3,26.6,30.19,NNW,345,0.0,1.0,76,0.00,,,0.00,meteohub,2013-11-07 03:47:00,
2013-11-06 21:52:00,33.3,26.6,30.19,NNW,346,0.0,0.0,76,0.00,,,0.00,meteohub,2013-11-07 03:52:00,
2013-11-06 21:57:00,33.3,26.6,30.20,NNW,346,0.0,0.0,76,0.00,,,0.00,meteohub,2013-11-07 03:57:00,
2013-11-06 22:02:00,33.1,26.6,30.20,NW,323,0.0,0.0,77,0.00,,,0.00,meteohub,2013-11-07 04:02:00,
2013-11-06 22:07:00,33.1,26.6,30.19,NW,324,0.0,3.0,77,0.00,,,0.00,meteohub,2013-11-07 04:07:00,
2013-11-06 22:12:00,33.1,26.6,30.20,NW,321,0.0,3.0,77,0.00,,,0.00,meteohub,2013-11-07 04:12:00,
2013-11-06 22:17:00,33.1,26.6,30.19,NW,321,0.0,2.0,77,0.00,,,0.00,meteohub,2013-11-07 04:17:00,
2013-11-06 22:22:00,32.9,26.4,30.19,NW,321,0.0,2.0,77,0.00,,,0.00,meteohub,2013-11-07 04:22:00,
2013-11-06 22:27:00,32.7,26.2,30.20,WNW,285,0.0,1.0,77,0.00,,,0.00,meteohub,2013-11-07 04:27:00,
2013-11-06 22:32:00,32.7,26.2,30.20,North,5,0.0,3.0,77,0.00,,,0.00,meteohub,2013-11-07 04:32:00,
2013-11-06 22:37:00,32.5,26.1,30.19,NNW,346,0.0,3.0,77,0.00,,,0.00,meteohub,2013-11-07 04:37:00,
2013-11-06 22:42:00,32.5,26.1,30.19,NNW,348,0.0,3.0,77,0.00,,,0.00,meteohub,2013-11-07 04:42:00,
2013-11-06 22:47:00,32.5,26.1,30.19,North,355,0.0,3.0,77,0.00,,,0.00,meteohub,2013-11-07 04:47:00,
2013-11-06 22:52:00,32.4,25.9,30.19,NW,322,0.0,3.0,77,0.00,,,0.00,meteohub,2013-11-07 04:52:00,
2013-11-06 22:57:00,32.4,25.9,30.19,NW,321,0.0,3.0,77,0.00,,,0.00,meteohub,2013-11-07 04:57:00,
2013-11-06 23:01:00,32.4,25.9,30.19,NW,317,0.0,3.0,77,0.00,,,0.00,meteohub,2013-11-07 05:01:00,
2013-11-06 23:02:00,32.4,25.9,30.19,NW,317,1.0,3.0,77,0.00,,,0.00,meteohub,2013-11-07 05:02:00,
2013-11-06 23:06:00,32.2,25.7,30.19,NNW,340,1.0,3.0,77,0.00,,,0.00,meteohub,2013-11-07 05:06:00,
2013-11-06 23:07:00,32.2,25.7,30.19,NNW,340,0.0,3.0,77,0.00,,,0.00,meteohub,2013-11-07 05:07:00,
2013-11-06 23:08:00,32.2,25.7,30.19,NNW,341,0.0,3.0,77,0.00,,,0.00,meteohub,2013-11-07 05:08:00,
2013-11-06 23:13:00,32.0,27.5,30.19,NW,321,0.0,8.0,83,0.00,,,0.00,meteohub,2013-11-07 05:13:00,
2013-11-06 23:18:00,31.8,25.5,30.19,West,281,0.0,8.0,77,0.00,,,0.00,meteohub,2013-11-07 05:18:00,
2013-11-06 23:23:00,31.6,25.3,30.19,NW,309,2.0,3.0,77,0.00,,,0.00,meteohub,2013-11-07 05:23:00,
2013-11-06 23:28:00,31.6,25.5,30.19,NNW,344,0.0,3.0,78,0.00,,,0.00,meteohub,2013-11-07 05:28:00,
2013-11-06 23:33:00,31.5,25.3,30.19,WNW,303,0.0,5.0,78,0.00,,,0.00,meteohub,2013-11-07 05:33:00,
2013-11-06 23:38:00,31.3,25.2,30.19,NE,52,0.0,5.0,78,0.00,,,0.00,meteohub,2013-11-07 05:38:00,
2013-11-06 23:43:00,31.3,25.2,30.19,NNE,24,0.0,5.0,78,0.00,,,0.00,meteohub,2013-11-07 05:43:00,
2013-11-06 23:48:00,30.9,24.8,30.20,NNE,25,0.0,5.0,78,0.00,,,0.00,meteohub,2013-11-07 05:48:00,
2013-11-06 23:53:00,30.9,24.8,30.20,North,5,0.0,4.0,78,0.00,,,0.00,meteohub,2013-11-07 05:53:00,
2013-11-06 23:58:00,30.7,24.6,30.20,NW,314,0.0,4.0,78,0.00,,,0.00,meteohub,2013-11-07 05:58:00,